• Join FlightAware (Why Join?)
  • Login
  • US Flag 
11:56AM EDT


 

Airport Tracker/Info


-or-


 

Live Flight TrackerFlight Track Log ✈ WAE5 ✈ 21-May-2013 ✈ KSLC - KPIH

Flight Track Log - Related Links

Times and Time Zones

All times are in EDT time to prevent confusion due to time zone crossing. See the WAE5 flight status page for this flight to view local times or setup timezone preferences in your user account.

Time Position Orientation Groundspeed Altitude Reporting Facility
EDT Latitude Longitude Course Direction KTS MPH feet Rate Location/Type
08:58AM 40.7636 -111.9686 240° Southwest 113 130 4,800  Level Salt Lake Center
08:58AM 40.7592 -111.9786 240° Southwest 124 143 5,000 660 Climbing Salt Lake Center
08:59AM 40.7831 -112.0242 305° West 138 159 5,800 720 Climbing Salt Lake Center
09:01AM 40.8175 -112.0619 320° Northwest 140 161 6,700 780 Climbing Salt Lake Center
09:01AM 40.8492 -112.0756 342° North 136 157 7,500 840 Climbing Salt Lake Center
09:03AM 40.8886 -112.0906 344° North 138 159 8,300 720 Climbing Salt Lake Center
09:04AM 40.9358 -112.1114 342° North 143 165 9,200 660 Climbing Salt Lake Center
09:05AM 40.9728 -112.1244 345° North 143 165 9,900 420 Climbing Salt Lake Center
09:06AM 41.0047 -112.1333 348° North 150 173 10,000  Climbing Salt Lake Center
09:07AM 41.0558 -112.1525 344° North 174 200 10,000  Level Salt Lake Center
09:08AM 41.1069 -112.1614 353° North 181 208 10,000  Level Salt Lake Center
09:09AM 41.1608 -112.1631 359° North 181 208 10,000  Level Salt Lake Center
09:10AM 41.2100 -112.1719 352° North 181 208 10,000  Level Salt Lake Center
09:11AM 41.2622 -112.1742 358° North 183 211 10,000  Level Salt Lake Center
09:12AM 41.3158 -112.1731 North 181 208 10,000  Level Salt Lake Center
09:13AM 41.3581 -112.1700 North 180 207 10,000 240 Level Salt Lake Center
09:14AM 41.4125 -112.1922 343° North 168 193 10,500 180 Climbing Salt Lake Center
09:15AM 41.4586 -112.2039 349° North 169 194 10,400  Descending Salt Lake Center
09:16AM 41.5078 -112.2181 348° North 178 205 10,500  Climbing Salt Lake Center
09:17AM 41.5569 -112.2297 350° North 180 207 10,400 -60 Descending Salt Lake Center
09:18AM 41.6067 -112.2431 349° North 181 208 10,400  Level Salt Lake Center
09:19AM 41.6558 -112.2556 349° North 179 206 10,500  Climbing Salt Lake Center
09:20AM 41.7033 -112.2664 350° North 176 203 10,500  Level Salt Lake Center
09:21AM 41.7536 -112.2808 348° North 181 208 10,500 -60 Level Salt Lake Center
09:22AM 41.8025 -112.2919 350° North 179 206 10,400 -60 Descending Salt Lake Center
09:23AM 41.8519 -112.3050 349° North 179 206 10,400  Level Salt Lake Center
09:24AM 41.9022 -112.3186 349° North 181 208 10,400  Level Salt Lake Center
09:25AM 41.9517 -112.3297 351° North 181 208 10,400  Level Salt Lake Center
09:26AM 42.0119 -112.3447 350° North 182 209 10,400  Level Salt Lake Center
09:27AM 42.0617 -112.3603 347° North 183 211 10,500  Climbing Salt Lake Center
09:28AM 42.1106 -112.3767 346° North 183 211 10,500  Level Salt Lake Center
09:29AM 42.1583 -112.3925 346° North 180 207 10,500 -60 Level Salt Lake Center
09:30AM 42.2086 -112.4103 345° North 182 209 10,400 -60 Descending Salt Lake Center
09:31AM 42.2578 -112.4264 346° North 183 211 10,400  Level Salt Lake Center
09:32AM 42.3067 -112.4428 346° North 182 209 10,400  Level Salt Lake Center
09:33AM 42.3553 -112.4589 346° North 181 208 10,400  Level Salt Lake Center
09:34AM 42.4064 -112.4725 349° North 185 213 10,400  Level Salt Lake Center
09:35AM 42.4558 -112.4892 346° North 183 211 10,400  Level Salt Lake Center
09:36AM 42.5042 -112.5058 346° North 182 209 10,400 -300 Level Salt Lake Center
09:37AM 42.5653 -112.5267 346° North 186 214 9,900 -480 Descending Salt Lake Center
09:38AM 42.6106 -112.5442 344° North 190 219 9,500 -420 Descending Salt Lake Center